Alto Araguaia, Brazil
Current Conditions -  °F | °C
As of 9:00 AM on Sunday 21 Dec 2014 (Local Time) from SBCY Reporting Station
Clear Clear  
Wind Chill: 82°   Ceiling: Unl
Heat Index: 88°   Visibility: 6mi
Dew Point: 73°   Wind: 12mph
Humidity: 74%   Direction: 10°N
Pressure: 29.88"   Gusts: NA
Location:  17.31°S, 53.22°W
Report Text: SBCY 211200Z 01010KT CAVOK 28/23 Q1012
Loading
Personal Weather Stations






























Interactive Weather Map New forecast layout! Learn more

10-Day Weather Forecast

Advertisements
Track Severe Weather on mobile